createdAt,value
2023-01-21T00:04:38.257Z,13.65
2023-01-21T00:09:42.577Z,8.27
2023-01-21T00:14:48.453Z,5.93
2023-01-21T00:20:09.338Z,5.32
2023-01-21T00:25:16.844Z,6.95
2023-01-21T00:30:25.120Z,6.18
2023-01-21T00:35:43.944Z,8.13
2023-01-21T00:40:48.471Z,5.25
2023-01-21T00:45:54.482Z,3.40
2023-01-21T00:51:01.013Z,4.63
2023-01-21T00:56:08.180Z,3.70
2023-01-21T01:01:16.436Z,4.53
2023-01-21T01:06:22.679Z,5.88
2023-01-21T01:11:28.928Z,6.18
2023-01-21T01:16:34.835Z,4.40
2023-01-21T01:21:39.254Z,4.20
2023-01-21T01:26:43.773Z,5.13
2023-01-21T01:31:49.608Z,3.13
2023-01-21T01:41:57.796Z,3.33
2023-01-21T01:47:06.062Z,3.03
2023-01-21T01:52:13.102Z,5.50
2023-01-21T01:57:22.067Z,3.35
2023-01-21T02:02:27.863Z,4.32
2023-01-21T02:07:39.592Z,2.40
2023-01-21T02:12:45.506Z,2.10
2023-01-21T02:18:06.649Z,2.38
2023-01-21T02:23:18.434Z,2.10
2023-01-21T02:29:00.609Z,1.67
2023-01-21T02:34:15.510Z,2.22
2023-01-21T02:39:36.220Z,3.10
2023-01-21T02:44:42.669Z,1.42
2023-01-21T02:49:53.859Z,3.88
2023-01-21T02:54:59.063Z,2.03
2023-01-21T03:00:06.482Z,4.57
2023-01-21T03:05:24.180Z,1.20
2023-01-21T03:10:35.220Z,1.23
2023-01-21T03:16:03.588Z,3.35
2023-01-21T03:21:13.933Z,1.50
2023-01-21T03:26:22.474Z,1.08
2023-01-21T03:31:31.917Z,2.22
2023-01-21T03:36:43.279Z,1.77
2023-01-21T03:41:47.807Z,2.92
2023-01-21T03:47:03.055Z,2.17
2023-01-21T03:52:11.245Z,1.85
2023-01-21T03:57:15.579Z,1.60
2023-01-21T04:02:20.668Z,2.35
2023-01-21T04:07:27.618Z,1.52
2023-01-21T04:12:32.038Z,1.40
2023-01-21T04:17:36.287Z,1.30
2023-01-21T04:22:41.963Z,1.77
2023-01-21T04:27:46.251Z,1.38
2023-01-21T04:32:50.702Z,1.55
2023-01-21T04:37:56.491Z,1.38
2023-01-21T04:48:04.852Z,1.48
2023-01-21T04:53:10.661Z,2.55
2023-01-21T05:03:19.302Z,2.40
2023-01-21T05:08:25.606Z,3.87
2023-01-21T05:18:33.942Z,3.63
2023-01-21T05:23:39.696Z,3.30
2023-01-21T05:28:43.943Z,3.65
2023-01-21T05:33:48.403Z,4.18
2023-01-21T05:38:54.097Z,6.95
2023-01-21T05:43:58.371Z,4.68
2023-01-21T05:49:02.733Z,5.13
2023-01-21T05:54:08.682Z,6.72
2023-01-21T05:59:13.374Z,7.20
2023-01-21T06:04:17.745Z,12.88
2023-01-21T06:09:23.660Z,28.65
2023-01-21T06:14:28.073Z,33.45
2023-01-21T06:19:32.395Z,20.17
2023-01-21T06:24:38.203Z,10.50
2023-01-21T06:29:42.540Z,10.77
2023-01-21T06:34:48.818Z,13.02
2023-01-21T06:39:55.821Z,15.18
2023-01-21T06:50:04.280Z,16.13
2023-01-21T06:55:11.058Z,13.00
2023-01-21T07:00:16.510Z,13.27
2023-01-21T07:05:21.264Z,18.90
2023-01-21T07:10:27.452Z,19.75
2023-01-21T07:15:31.971Z,21.40
2023-01-21T07:20:36.529Z,19.40
2023-01-21T07:25:43.078Z,20.48
2023-01-21T07:30:48.122Z,28.48
2023-01-21T07:35:52.795Z,29.33
2023-01-21T07:40:59.040Z,20.40
2023-01-21T07:46:03.650Z,20.27
2023-01-21T07:51:08.512Z,23.63
2023-01-21T07:56:15.092Z,15.97
2023-01-21T08:01:19.852Z,21.67
2023-01-21T08:06:24.779Z,15.00
2023-01-21T08:11:30.800Z,12.63
2023-01-21T08:16:35.553Z,14.35
2023-01-21T08:21:40.405Z,12.50
2023-01-21T08:26:46.734Z,12.27
2023-01-21T08:31:52.496Z,11.25
2023-01-21T08:42:02.752Z,10.55
2023-01-21T08:47:07.371Z,9.65
2023-01-21T08:52:12.266Z,31.05
2023-01-21T08:57:20.216Z,11.75
2023-01-21T09:02:24.964Z,14.43
2023-01-21T09:07:30.391Z,22.50
2023-01-21T09:12:38.399Z,13.25
2023-01-21T09:18:33.744Z,25.90
2023-01-21T09:24:04.703Z,10.55
2023-01-21T09:29:11.385Z,12.38
2023-01-21T09:34:18.447Z,11.75
2023-01-21T09:39:23.035Z,13.95
2023-01-21T09:44:33.476Z,7.72
2023-01-21T09:49:42.599Z,7.15
2023-01-21T09:54:47.219Z,5.10
2023-01-21T10:00:05.523Z,10.55
2023-01-21T10:05:40.535Z,5.63
2023-01-21T10:10:51.720Z,5.22
2023-01-21T10:16:06.635Z,6.13
2023-01-21T10:21:18.163Z,6.00
2023-01-21T10:26:23.578Z,6.03
2023-01-21T10:31:32.049Z,5.85
2023-01-21T10:36:53.470Z,9.82
2023-01-21T10:42:09.971Z,6.38
2023-01-21T10:47:27.783Z,7.18
2023-01-21T10:52:40.102Z,5.20
2023-01-21T10:57:56.696Z,7.90
2023-01-21T11:03:06.327Z,8.73
2023-01-21T11:08:20.151Z,16.67
2023-01-21T11:13:24.691Z,9.82
2023-01-21T11:18:34.752Z,17.50
2023-01-21T11:23:40.566Z,8.05
2023-01-21T11:33:52.825Z,11.83
2023-01-21T11:39:03.374Z,6.30
2023-01-21T11:44:17.915Z,12.82
2023-01-21T11:49:30.302Z,9.77
2023-01-21T11:54:40.633Z,8.82
2023-01-21T11:59:48.717Z,15.55
2023-01-21T12:04:58.488Z,12.95
2023-01-21T12:10:09.128Z,12.68
2023-01-21T12:15:34.803Z,10.75
2023-01-21T12:20:50.972Z,12.27
2023-01-21T12:26:01.331Z,9.95
2023-01-21T12:31:23.768Z,10.20
2023-01-21T12:36:33.358Z,9.13
2023-01-21T12:41:40.673Z,11.18
2023-01-21T12:46:49.826Z,17.02
2023-01-21T12:51:59.129Z,19.13
2023-01-21T12:57:15.017Z,20.85
2023-01-21T13:02:25.310Z,27.35
2023-01-21T13:07:44.336Z,21.00
2023-01-21T13:12:53.249Z,30.45
2023-01-21T13:18:02.182Z,29.00
2023-01-21T13:23:18.633Z,29.88
2023-01-21T13:28:27.488Z,27.50
2023-01-21T13:33:43.466Z,32.08
2023-01-21T13:39:00.469Z,35.08
2023-01-21T13:44:37.711Z,35.83
2023-01-21T13:50:18.083Z,21.33
2023-01-21T13:55:39.665Z,21.58
2023-01-21T14:00:48.202Z,17.25
2023-01-21T14:05:58.720Z,14.88
2023-01-21T14:11:11.398Z,15.55
2023-01-21T14:16:36.458Z,19.60
2023-01-21T14:22:15.136Z,17.15
2023-01-21T14:27:33.541Z,21.33
2023-01-21T14:32:43.194Z,23.17
2023-01-21T14:37:55.545Z,25.70
2023-01-21T14:43:01.679Z,25.20
2023-01-21T14:48:29.992Z,35.28
2023-01-21T14:53:44.927Z,35.72
2023-01-21T14:58:53.843Z,22.45
2023-01-21T15:03:59.749Z,18.83
2023-01-21T15:09:06.101Z,41.40
2023-01-21T15:14:16.902Z,50.95
2023-01-21T15:19:30.471Z,68.72
2023-01-21T15:24:41.942Z,42.03
2023-01-21T15:30:08.860Z,36.03
2023-01-21T15:35:25.843Z,44.40
2023-01-21T15:40:38.489Z,55.78
2023-01-21T15:45:51.052Z,69.00
2023-01-21T15:51:02.325Z,80.78
2023-01-21T15:56:23.828Z,97.95
2023-01-21T16:01:44.020Z,86.63
2023-01-21T16:07:13.151Z,104.43
2023-01-21T16:12:26.070Z,109.75
2023-01-21T16:17:54.114Z,108.20
2023-01-21T16:23:02.374Z,99.93
2023-01-21T16:28:07.033Z,78.78
2023-01-21T16:33:20.989Z,342.45
2023-01-21T16:38:27.685Z,256.13
2023-01-21T16:43:33.081Z,100.60
2023-01-21T16:48:39.087Z,159.88
2023-01-21T16:53:43.862Z,182.98
2023-01-21T16:58:48.907Z,186.02
2023-01-21T17:03:55.612Z,177.97
2023-01-21T17:09:05.171Z,95.00
2023-01-21T17:14:11.584Z,121.32
2023-01-21T17:19:25.204Z,81.80
2023-01-21T17:24:32.520Z,94.47
2023-01-21T17:29:37.457Z,92.20
2023-01-21T17:34:43.878Z,55.40
2023-01-21T17:40:01.264Z,47.35
2023-01-21T17:45:07.616Z,37.70
2023-01-21T17:50:22.545Z,39.13
2023-01-21T17:55:31.735Z,33.92
2023-01-21T18:00:41.093Z,39.38
2023-01-21T18:05:47.072Z,36.35
2023-01-21T18:10:52.220Z,35.42
2023-01-21T18:15:56.729Z,34.50
2023-01-21T18:21:03.209Z,30.77
2023-01-21T18:26:15.160Z,31.88
2023-01-21T18:31:19.855Z,33.90
2023-01-21T18:36:25.935Z,27.33
2023-01-21T18:41:30.423Z,27.70
2023-01-21T18:46:39.583Z,65.78
2023-01-21T18:51:46.153Z,29.30
2023-01-21T18:56:50.680Z,31.75
2023-01-21T19:01:55.528Z,28.15
2023-01-21T19:07:01.501Z,31.73
2023-01-21T19:12:06.795Z,29.13
2023-01-21T19:17:13.732Z,31.98
2023-01-21T19:22:19.629Z,48.33
2023-01-21T19:32:31.274Z,86.68
2023-01-21T19:37:40.218Z,72.95
2023-01-21T19:42:44.803Z,67.18
2023-01-21T19:47:52.547Z,78.00
2023-01-21T19:52:58.603Z,67.75
2023-01-21T19:58:05.264Z,79.35
2023-01-21T20:03:12.346Z,81.50
2023-01-21T20:08:21.859Z,113.47
2023-01-21T20:13:31.405Z,108.65
2023-01-21T20:18:35.992Z,74.90
2023-01-21T20:23:41.996Z,79.85
2023-01-21T20:28:51.511Z,80.38
2023-01-21T20:33:56.614Z,63.08
2023-01-21T20:39:02.595Z,70.37
2023-01-21T20:44:07.221Z,63.17
2023-01-21T20:49:12.520Z,59.40
2023-01-21T20:54:20.101Z,71.15
2023-01-21T20:59:24.707Z,79.20
2023-01-21T21:04:30.117Z,81.20
2023-01-21T21:09:36.447Z,83.10
2023-01-21T21:14:41.109Z,73.47
2023-01-21T21:19:45.585Z,82.93
2023-01-21T21:24:51.485Z,93.47
2023-01-21T21:29:59.304Z,97.18
2023-01-21T21:35:03.959Z,136.00
2023-01-21T21:40:12.033Z,154.55
2023-01-21T21:45:16.917Z,113.40
2023-01-21T21:50:21.429Z,112.37
2023-01-21T21:55:27.301Z,129.27
2023-01-21T22:00:31.774Z,142.48
2023-01-21T22:05:37.742Z,125.57
2023-01-21T22:10:43.722Z,127.22
2023-01-21T22:15:54.822Z,119.28
2023-01-21T22:21:01.547Z,112.80
2023-01-21T22:26:09.575Z,116.30
2023-01-21T22:31:17.111Z,113.97
2023-01-21T22:36:23.818Z,97.75
2023-01-21T22:41:30.047Z,82.10
2023-01-21T22:46:35.962Z,78.90
2023-01-21T22:51:40.243Z,78.45
2023-01-21T22:56:52.510Z,75.38
2023-01-21T23:01:57.271Z,87.25
2023-01-21T23:07:01.629Z,73.80
2023-01-21T23:12:09.261Z,72.65
2023-01-21T23:17:13.785Z,68.55
2023-01-21T23:22:18.137Z,52.35
2023-01-21T23:27:24.019Z,63.70
2023-01-21T23:32:28.470Z,50.90
2023-01-21T23:37:32.987Z,47.63
2023-01-21T23:42:38.841Z,57.85
2023-01-21T23:47:43.300Z,48.70
2023-01-21T23:52:47.722Z,59.67
2023-01-21T23:57:53.502Z,53.60
